createdAt,value
2019-05-06T00:00:34.271Z,100608.27
2019-05-06T00:01:38.485Z,100604.91
2019-05-06T00:02:43.581Z,100601.56
2019-05-06T00:03:48.013Z,100602.17
2019-05-06T00:04:54.201Z,100602.46
2019-05-06T00:05:58.489Z,100603.86
2019-05-06T00:07:04.263Z,100606.09
2019-05-06T00:08:08.583Z,100599.67
2019-05-06T00:09:14.695Z,100601.34
2019-05-06T00:10:30.381Z,100605.27
2019-05-06T00:11:34.855Z,100594.66
2019-05-06T00:12:39.261Z,100598.27
2019-05-06T00:13:44.576Z,100601.05
2019-05-06T00:14:48.982Z,100606.01
2019-05-06T00:15:54.340Z,100602.92
2019-05-06T00:16:59.765Z,100601.53
2019-05-06T00:18:04.952Z,100598.45
2019-05-06T00:19:09.235Z,100598.45
2019-05-06T00:20:14.683Z,100607.12
2019-05-06T00:21:20.070Z,100606.01
2019-05-06T00:22:24.273Z,100602.92
2019-05-06T00:23:30.241Z,100610.16
2019-05-06T00:24:36.055Z,100608.09
2019-05-06T00:25:44.822Z,100608.67
2019-05-06T00:26:50.714Z,100608.98
2019-05-06T00:28:14.914Z,100613.17
2019-05-06T00:29:20.870Z,100615.72
2019-05-06T00:30:25.225Z,100607.85
2019-05-06T00:31:29.400Z,100610.09
2019-05-06T00:32:34.878Z,100613.98
2019-05-06T00:33:39.163Z,100613.98
2019-05-06T00:34:44.451Z,100619.28
2019-05-06T00:35:48.814Z,100613.15
2019-05-06T00:36:54.528Z,100617.91
2019-05-06T00:37:59.028Z,100612.61
2019-05-06T00:39:07.114Z,100616.78
2019-05-06T00:40:14.084Z,100618.20
2019-05-06T00:41:35.898Z,100614.56
2019-05-06T00:42:39.725Z,100613.72
2019-05-06T00:43:43.953Z,100617.31
2019-05-06T00:44:48.299Z,100614.50
2019-05-06T00:45:53.653Z,100617.03
2019-05-06T00:46:57.960Z,100617.03
2019-05-06T00:48:04.503Z,100624.01
2019-05-06T00:49:08.026Z,100622.06
2019-05-06T00:50:14.234Z,100624.31
2019-05-06T00:51:18.595Z,100622.66
2019-05-06T00:52:23.934Z,100624.34
2019-05-06T00:53:31.724Z,100619.08
2019-05-06T00:54:36.291Z,100620.75
2019-05-06T00:55:40.675Z,100576.30
2019-05-06T00:56:46.481Z,100625.45
2019-05-06T00:57:54.486Z,100621.81
2019-05-06T00:59:03.687Z,100622.94
2019-05-06T01:00:07.708Z,100621.55
2019-05-06T01:01:24.114Z,100623.21
2019-05-06T01:02:18.218Z,100626.84
2019-05-06T01:03:23.863Z,100625.16
2019-05-06T01:04:28.249Z,100622.94
2019-05-06T01:05:33.749Z,100622.92
2019-05-06T01:06:38.075Z,100622.61
2019-05-06T01:07:43.989Z,100623.72
2019-05-06T01:08:48.613Z,100620.37
2019-05-06T01:09:54.173Z,100626.25
2019-05-06T01:10:58.698Z,100625.41
2019-05-06T01:12:03.724Z,100627.37
2019-05-06T01:13:10.715Z,100630.17
2019-05-06T01:14:20.740Z,100631.28
2019-05-06T01:15:26.712Z,100623.98
2019-05-06T01:16:30.934Z,100624.81
2019-05-06T01:17:35.241Z,100622.86
2019-05-06T01:18:39.566Z,100627.89
2019-05-06T01:19:45.705Z,100627.55
2019-05-06T01:20:51.637Z,100622.20
2019-05-06T01:21:55.999Z,100633.11
2019-05-06T01:23:00.249Z,100632.55
2019-05-06T01:24:05.036Z,100636.74
2019-05-06T01:25:09.301Z,100626.11
2019-05-06T01:26:15.180Z,100621.09
2019-05-06T01:27:19.488Z,100633.09
2019-05-06T01:28:24.507Z,100630.84
2019-05-06T01:29:28.796Z,100625.27
2019-05-06T01:30:33.688Z,100627.50
2019-05-06T01:31:42.914Z,100630.03
2019-05-06T01:32:44.000Z,100627.22
2019-05-06T01:33:48.182Z,100624.13
2019-05-06T01:34:53.693Z,100626.35
2019-05-06T01:35:58.221Z,100632.48
2019-05-06T01:37:03.706Z,100630.54
2019-05-06T01:38:21.547Z,100630.25
2019-05-06T01:39:28.507Z,100628.48
2019-05-06T01:40:34.625Z,100627.37
2019-05-06T01:41:46.161Z,100629.06
2019-05-06T01:42:54.019Z,100624.88
2019-05-06T01:43:59.106Z,100637.15
2019-05-06T01:45:04.704Z,100629.28
2019-05-06T01:46:09.735Z,100636.84
2019-05-06T01:47:14.556Z,100640.47
2019-05-06T01:48:20.416Z,100627.36
2019-05-06T01:49:24.677Z,100633.78
2019-05-06T01:50:28.842Z,100634.07
2019-05-06T01:51:34.814Z,100631.55
2019-05-06T01:52:39.231Z,100629.59
2019-05-06T01:53:44.826Z,100629.30
2019-05-06T01:54:49.201Z,100637.97
2019-05-06T01:55:54.606Z,100633.78
2019-05-06T01:56:58.889Z,100639.36
2019-05-06T01:58:04.987Z,100638.20
2019-05-06T01:59:09.009Z,100641.27
2019-05-06T02:00:14.067Z,100644.90
2019-05-06T02:01:18.460Z,100636.52
2019-05-06T02:02:23.883Z,100641.00
2019-05-06T02:03:28.294Z,100639.02
2019-05-06T02:04:33.699Z,100649.88
2019-05-06T02:05:38.054Z,100644.78
2019-05-06T02:06:43.723Z,100645.39
2019-05-06T02:07:48.148Z,100650.37
2019-05-06T02:08:54.019Z,100645.31
2019-05-06T02:09:58.420Z,100648.39
2019-05-06T02:11:04.138Z,100649.52
2019-05-06T02:12:08.615Z,100648.39
2019-05-06T02:13:14.237Z,100654.27
2019-05-06T02:14:18.498Z,100654.23
2019-05-06T02:15:23.882Z,100654.23
2019-05-06T02:16:28.308Z,100653.10
2019-05-06T02:17:34.386Z,100653.28
2019-05-06T02:18:38.450Z,100655.58
2019-05-06T02:19:43.837Z,100647.15
2019-05-06T02:20:49.926Z,100647.15
2019-05-06T02:21:55.808Z,100646.56
2019-05-06T02:23:01.705Z,100650.75
2019-05-06T02:24:13.542Z,100650.75
2019-05-06T02:25:19.411Z,100652.44
2019-05-06T02:26:23.981Z,100658.86
2019-05-06T02:27:28.401Z,100647.38
2019-05-06T02:28:34.457Z,100648.78
2019-05-06T02:29:40.294Z,100652.97
2019-05-06T02:30:46.129Z,100652.12
2019-05-06T02:32:19.873Z,100649.89
2019-05-06T02:33:26.774Z,100642.80
2019-05-06T02:34:36.551Z,100656.28
2019-05-06T02:35:48.470Z,100657.09
2019-05-06T02:37:09.698Z,100654.02
2019-05-06T02:38:32.593Z,100654.50
2019-05-06T02:39:33.903Z,100664.48
2019-05-06T02:40:36.499Z,100655.11
2019-05-06T02:41:43.036Z,100659.84
2019-05-06T02:42:46.607Z,100657.32
2019-05-06T02:43:53.960Z,100657.84
2019-05-06T02:44:56.809Z,100657.75
2019-05-06T02:46:03.942Z,100659.14
2019-05-06T02:47:24.736Z,100657.20
2019-05-06T02:48:33.386Z,100647.98
2019-05-06T02:49:38.238Z,100654.41
2019-05-06T02:50:47.009Z,100653.30
2019-05-06T02:51:53.452Z,100652.75
2019-05-06T02:52:57.222Z,100650.19
2019-05-06T02:54:03.307Z,100656.32
2019-05-06T02:55:07.381Z,100659.62
2019-05-06T02:56:13.411Z,100657.87
2019-05-06T02:57:17.662Z,100660.37
2019-05-06T02:58:23.696Z,100659.83
2019-05-06T02:59:27.889Z,100659.53
2019-05-06T03:00:32.977Z,100657.30
2019-05-06T03:01:37.494Z,100661.19
2019-05-06T03:02:44.893Z,100665.37
2019-05-06T03:03:48.823Z,100648.87
2019-05-06T03:04:53.150Z,100663.94
2019-05-06T03:05:57.352Z,100660.57
2019-05-06T03:07:03.686Z,100655.80
2019-05-06T03:08:07.424Z,100659.14
2019-05-06T03:09:13.451Z,100668.80
2019-05-06T03:10:18.066Z,100660.34
2019-05-06T03:11:23.971Z,100665.00
2019-05-06T03:12:28.390Z,100661.88
2019-05-06T03:13:33.935Z,100665.26
2019-05-06T03:14:38.558Z,100663.02
2019-05-06T03:15:43.481Z,100660.78
2019-05-06T03:16:48.220Z,100660.38
2019-05-06T03:17:55.092Z,100655.66
2019-05-06T03:18:58.288Z,100650.85
2019-05-06T03:20:04.567Z,100655.03
2019-05-06T03:21:13.998Z,100659.22
2019-05-06T03:22:19.983Z,100655.03
2019-05-06T03:23:43.839Z,100657.23
2019-05-06T03:24:49.848Z,100657.42
2019-05-06T03:25:54.182Z,100650.42
2019-05-06T03:26:58.624Z,100658.70
2019-05-06T03:28:04.280Z,100660.94
2019-05-06T03:29:08.687Z,100655.30
2019-05-06T03:30:16.506Z,100663.21
2019-05-06T03:31:19.230Z,100672.08
2019-05-06T03:32:30.352Z,100659.50
2019-05-06T03:33:46.642Z,100667.05
2019-05-06T03:34:57.851Z,100665.95
2019-05-06T03:35:56.135Z,100666.80
2019-05-06T03:36:49.163Z,100667.05
2019-05-06T03:37:53.591Z,100668.45
2019-05-06T03:38:58.022Z,100667.30
2019-05-06T03:40:03.053Z,100668.16
2019-05-06T03:41:07.456Z,100661.73
2019-05-06T03:42:13.682Z,100661.33
2019-05-06T03:43:18.684Z,100663.27
2019-05-06T03:44:23.903Z,100674.41
2019-05-06T03:45:33.663Z,100669.94
2019-05-06T03:46:55.820Z,100670.48
2019-05-06T03:48:07.601Z,100670.48
2019-05-06T03:49:13.488Z,100657.58
2019-05-06T03:50:17.735Z,100667.11
2019-05-06T03:51:23.459Z,100666.81
2019-05-06T03:52:29.367Z,100668.34
2019-05-06T03:53:34.900Z,100672.53
2019-05-06T03:54:39.257Z,100678.42
2019-05-06T03:55:46.770Z,100673.92
2019-05-06T03:56:53.564Z,100670.07
2019-05-06T03:57:57.196Z,100675.02
2019-05-06T03:59:02.784Z,100665.41
2019-05-06T04:00:08.090Z,100676.91
2019-05-06T04:01:13.288Z,100676.36
2019-05-06T04:02:17.870Z,100675.27
2019-05-06T04:03:42.057Z,100681.68
2019-05-06T04:04:29.493Z,100684.72
2019-05-06T04:05:33.737Z,100680.25
2019-05-06T04:06:37.990Z,100681.34
2019-05-06T04:07:45.394Z,100681.89
2019-05-06T04:08:49.044Z,100683.83
2019-05-06T04:09:53.889Z,100681.34
2019-05-06T04:10:58.182Z,100684.97
2019-05-06T04:12:03.572Z,100684.67
2019-05-06T04:13:09.129Z,100690.25
2019-05-06T04:14:14.132Z,100682.66
2019-05-06T04:15:18.470Z,100688.23
2019-05-06T04:16:24.288Z,100686.54
2019-05-06T04:17:32.718Z,100692.11
2019-05-06T04:18:54.260Z,100696.28
2019-05-06T04:20:04.053Z,100693.45
2019-05-06T04:21:16.854Z,100688.41
2019-05-06T04:22:25.707Z,100696.16
2019-05-06T04:23:33.997Z,100653.91
2019-05-06T04:24:49.040Z,100692.95
2019-05-06T04:26:03.535Z,100694.38
2019-05-06T04:27:26.266Z,100699.36
2019-05-06T04:28:34.165Z,100686.71
2019-05-06T04:29:37.977Z,100694.77
2019-05-06T04:30:43.114Z,100697.55
2019-05-06T04:31:47.582Z,100698.64
2019-05-06T04:32:53.221Z,100693.38
2019-05-06T04:34:09.831Z,100691.05
2019-05-06T04:35:04.920Z,100696.36
2019-05-06T04:36:09.206Z,100701.97
2019-05-06T04:37:14.402Z,100704.80
2019-05-06T04:38:18.896Z,100704.25
2019-05-06T04:39:23.641Z,100702.61
2019-05-06T04:40:27.988Z,100708.51
2019-05-06T04:41:34.249Z,100710.20
2019-05-06T04:42:38.277Z,100710.79
2019-05-06T04:43:43.861Z,100715.56
2019-05-06T04:44:48.373Z,100719.48
2019-05-06T04:45:54.041Z,100714.21
2019-05-06T04:46:58.641Z,100717.55
2019-05-06T04:48:04.287Z,100716.99
2019-05-06T04:49:14.078Z,100715.85
2019-05-06T04:50:14.531Z,100719.44
2019-05-06T04:51:18.789Z,100719.19
2019-05-06T04:52:26.026Z,100725.84
2019-05-06T04:53:29.018Z,100723.06
2019-05-06T04:54:33.767Z,100724.20
2019-05-06T04:55:39.118Z,100718.39
2019-05-06T04:56:44.005Z,100726.78
2019-05-06T04:57:48.438Z,100722.61
2019-05-06T04:58:53.829Z,100721.80
2019-05-06T04:59:58.330Z,100725.09
2019-05-06T05:01:04.330Z,100726.14
2019-05-06T05:02:08.819Z,100722.56
2019-05-06T05:03:14.176Z,100723.16
2019-05-06T05:04:28.289Z,100727.88
2019-05-06T05:05:24.569Z,100731.16
2019-05-06T05:06:28.828Z,100735.63
2019-05-06T05:07:33.524Z,100736.23
2019-05-06T05:08:38.409Z,100738.22
2019-05-06T05:09:43.046Z,100739.14
2019-05-06T05:10:54.918Z,100739.19
2019-05-06T05:12:02.707Z,100746.47
2019-05-06T05:13:08.445Z,100739.80
2019-05-06T05:14:14.337Z,100740.65
2019-05-06T05:15:20.209Z,100726.31
2019-05-06T05:16:26.035Z,100744.58
2019-05-06T05:17:46.780Z,100746.02
2019-05-06T05:18:55.367Z,100742.89
2019-05-06T05:19:59.559Z,100740.95
2019-05-06T05:21:04.328Z,100747.02
2019-05-06T05:22:08.521Z,100740.83
2019-05-06T05:23:14.345Z,100749.59
2019-05-06T05:24:18.523Z,100745.77
2019-05-06T05:25:22.756Z,100751.11
2019-05-06T05:26:28.622Z,100750.73
2019-05-06T05:27:33.054Z,100752.42
2019-05-06T05:28:37.276Z,100752.50
2019-05-06T05:29:42.339Z,100753.89
2019-05-06T05:30:46.663Z,100758.66
2019-05-06T05:31:52.950Z,100753.39
2019-05-06T05:32:56.977Z,100750.36
2019-05-06T05:34:02.079Z,100753.78
2019-05-06T05:35:06.879Z,100756.94
2019-05-06T05:36:12.430Z,100757.52
2019-05-06T05:37:16.819Z,100767.31
2019-05-06T05:38:22.732Z,100762.84
2019-05-06T05:39:27.098Z,100768.96
2019-05-06T05:40:32.176Z,100767.02
2019-05-06T05:41:36.593Z,100764.32
2019-05-06T05:42:48.197Z,100766.31
2019-05-06T05:43:58.263Z,100768.91
2019-05-06T05:45:02.826Z,100770.91
2019-05-06T05:46:07.101Z,100770.09
2019-05-06T05:47:12.358Z,100772.59
2019-05-06T05:48:32.432Z,100770.69
2019-05-06T05:49:37.985Z,100772.37
2019-05-06T05:50:43.633Z,100774.69
2019-05-06T05:51:47.887Z,100774.19
2019-05-06T05:52:52.458Z,100767.80
2019-05-06T05:53:57.025Z,100767.80
2019-05-06T05:55:02.747Z,100772.49
2019-05-06T05:56:07.213Z,100769.45
2019-05-06T05:57:11.923Z,100773.17
2019-05-06T05:58:16.333Z,100778.56
2019-05-06T05:59:23.169Z,100779.70
2019-05-06T06:00:28.716Z,100776.70
2019-05-06T06:01:32.965Z,100787.59
2019-05-06T06:02:37.258Z,100777.33
2019-05-06T06:03:42.169Z,100779.93
2019-05-06T06:04:55.856Z,100784.19
2019-05-06T06:05:52.373Z,100782.25
2019-05-06T06:06:56.794Z,100779.63
2019-05-06T06:08:02.875Z,100783.34
2019-05-06T06:09:07.376Z,100789.87
2019-05-06T06:10:13.274Z,100784.30
2019-05-06T06:11:19.119Z,100783.53
2019-05-06T06:12:23.400Z,100792.78
2019-05-06T06:13:27.787Z,100787.86
2019-05-06T06:14:43.728Z,100778.98
2019-05-06T06:16:06.430Z,100778.47
2019-05-06T06:17:32.500Z,100786.25
2019-05-06T06:19:38.594Z,100774.83
2019-05-06T06:24:36.463Z,100776.27
2019-05-06T06:25:42.379Z,100778.17
2019-05-06T06:26:46.608Z,100775.64
2019-05-06T06:27:52.230Z,100775.09
2019-05-06T06:28:56.507Z,100777.36
2019-05-06T06:30:02.437Z,100779.70
2019-05-06T06:31:15.975Z,100782.61
2019-05-06T06:32:23.054Z,100780.76
2019-05-06T06:33:27.812Z,100776.38
2019-05-06T06:34:33.905Z,100779.56
2019-05-06T06:35:42.618Z,100778.53
2019-05-06T06:36:47.482Z,100786.41
2019-05-06T06:37:56.478Z,100776.13
2019-05-06T06:39:12.465Z,100784.85
2019-05-06T06:40:22.133Z,100780.98
2019-05-06T06:41:24.143Z,100778.88
2019-05-06T06:42:28.703Z,100774.72
2019-05-06T06:43:32.913Z,100769.75
2019-05-06T06:44:37.140Z,100776.52
2019-05-06T06:45:42.142Z,100777.69
2019-05-06T06:46:46.632Z,100776.06
2019-05-06T06:47:51.886Z,100778.94
2019-05-06T06:48:56.213Z,100780.66
2019-05-06T06:50:02.624Z,100784.61
2019-05-06T06:51:06.284Z,100777.65
2019-05-06T06:52:14.176Z,100778.84
2019-05-06T06:53:16.879Z,100777.73
2019-05-06T06:54:22.839Z,100774.42
2019-05-06T06:55:27.207Z,100777.26
2019-05-06T06:56:33.303Z,100771.44
2019-05-06T06:57:42.521Z,100777.89
2019-05-06T06:59:06.619Z,100771.75
2019-05-06T07:00:13.491Z,100777.03
2019-05-06T07:01:23.480Z,100776.77
2019-05-06T07:02:35.978Z,100779.03
2019-05-06T07:03:44.542Z,100774.86
2019-05-06T07:04:52.590Z,100782.69
2019-05-06T07:05:58.035Z,100780.21
2019-05-06T07:07:03.905Z,100774.12
2019-05-06T07:08:08.185Z,100779.47
2019-05-06T07:09:12.653Z,100776.98
2019-05-06T07:10:34.631Z,100780.13
2019-05-06T07:11:38.807Z,100785.20
2019-05-06T07:12:42.986Z,100777.11
2019-05-06T07:13:53.505Z,100781.90
2019-05-06T07:15:02.377Z,100780.00
2019-05-06T07:16:06.279Z,100787.59
2019-05-06T07:17:10.563Z,100784.83
2019-05-06T07:18:15.589Z,100780.69
2019-05-06T07:19:22.953Z,100780.98
2019-05-06T07:20:32.374Z,100783.81
2019-05-06T07:21:37.483Z,100777.11
2019-05-06T07:22:42.504Z,100783.01
2019-05-06T07:23:46.723Z,100780.00
2019-05-06T07:24:52.702Z,100783.66
2019-05-06T07:25:57.129Z,100781.72
2019-05-06T07:27:03.120Z,100788.17
2019-05-06T07:28:07.373Z,100786.84
2019-05-06T07:29:15.330Z,100781.53
2019-05-06T07:30:19.207Z,100783.84
2019-05-06T07:31:26.494Z,100785.57
2019-05-06T07:32:29.519Z,100785.61
2019-05-06T07:33:34.064Z,100791.78
2019-05-06T07:34:38.289Z,100784.02
2019-05-06T07:35:43.959Z,100776.76
2019-05-06T07:36:49.413Z,100779.30
2019-05-06T07:37:53.925Z,100785.80
2019-05-06T07:38:58.289Z,100786.94
2019-05-06T07:40:03.156Z,100788.91
2019-05-06T07:41:14.927Z,100785.03
2019-05-06T07:42:19.770Z,100783.09
2019-05-06T07:43:28.033Z,100785.63
2019-05-06T07:44:46.002Z,100781.72
2019-05-06T07:45:53.174Z,100790.11
2019-05-06T07:47:04.833Z,100786.48
2019-05-06T07:48:12.814Z,100793.81
2019-05-06T07:49:18.143Z,100793.25
2019-05-06T07:50:22.498Z,100789.63
2019-05-06T07:51:27.213Z,100789.34
2019-05-06T07:52:32.564Z,100789.08
2019-05-06T07:53:37.008Z,100785.48
2019-05-06T07:54:42.417Z,100786.34
2019-05-06T07:55:46.768Z,100790.56
2019-05-06T07:56:52.614Z,100789.77
2019-05-06T07:57:57.211Z,100786.14
2019-05-06T07:59:12.560Z,100783.08
2019-05-06T08:00:16.199Z,100786.48
2019-05-06T08:01:25.974Z,100779.48
2019-05-06T08:02:27.953Z,100787.06
2019-05-06T08:03:32.949Z,100791.86
2019-05-06T08:04:37.404Z,100788.50
2019-05-06T08:05:54.822Z,100784.87
2019-05-06T08:06:47.562Z,100791.32
2019-05-06T08:07:55.046Z,100791.60
2019-05-06T08:08:57.862Z,100789.96
2019-05-06T08:10:02.370Z,100793.61
2019-05-06T08:11:07.867Z,100786.33
2019-05-06T08:12:12.673Z,100794.77
2019-05-06T08:13:16.978Z,100785.52
2019-05-06T08:14:22.579Z,100791.69
2019-05-06T08:15:27.221Z,100793.37
2019-05-06T08:16:33.103Z,100789.77
2019-05-06T08:17:38.361Z,100796.50
2019-05-06T08:18:43.358Z,100793.45
2019-05-06T08:19:47.554Z,100792.62
2019-05-06T08:20:52.067Z,100790.41
2019-05-06T08:22:02.664Z,100781.72
2019-05-06T08:23:12.562Z,100790.41
2019-05-06T08:24:16.906Z,100788.47
2019-05-06T08:25:22.982Z,100793.52
2019-05-06T08:26:27.274Z,100793.52
2019-05-06T08:27:32.971Z,100785.97
2019-05-06T08:28:41.414Z,100788.50
2019-05-06T08:29:43.303Z,100785.13
2019-05-06T08:30:47.639Z,100787.39
2019-05-06T08:31:52.480Z,100789.34
2019-05-06T08:32:57.111Z,100785.98
2019-05-06T08:34:02.670Z,100790.47
2019-05-06T08:35:09.956Z,100789.65
2019-05-06T08:36:15.048Z,100792.16
2019-05-06T08:37:23.850Z,100791.06
2019-05-06T08:38:28.026Z,100790.77
2019-05-06T08:39:32.778Z,100786.55
2019-05-06T08:40:37.177Z,100790.50
2019-05-06T08:41:42.312Z,100787.95
2019-05-06T08:42:47.759Z,100785.99
2019-05-06T08:43:52.861Z,100787.67
2019-05-06T08:44:57.399Z,100782.66
2019-05-06T08:46:03.203Z,100787.98
2019-05-06T08:47:07.815Z,100787.96
2019-05-06T08:48:13.070Z,100784.30
2019-05-06T08:49:17.430Z,100781.49
2019-05-06T08:50:23.374Z,100774.49
2019-05-06T08:51:35.212Z,100782.61
2019-05-06T08:52:57.258Z,100781.78
2019-05-06T08:54:03.311Z,100782.88
2019-05-06T08:55:07.835Z,100782.30
2019-05-06T08:56:16.398Z,100778.36
2019-05-06T08:57:19.822Z,100778.06
2019-05-06T08:58:25.908Z,100781.44
2019-05-06T08:59:32.095Z,100779.16
2019-05-06T09:00:38.274Z,100777.19
2019-05-06T09:01:44.162Z,100780.31
2019-05-06T09:02:48.749Z,100777.20
2019-05-06T09:04:06.433Z,100776.91
2019-05-06T09:04:59.115Z,100774.97
2019-05-06T09:06:03.414Z,100781.44
2019-05-06T09:07:07.588Z,100773.86
2019-05-06T09:08:13.700Z,100779.19
2019-05-06T09:09:17.741Z,100779.73
2019-05-06T09:10:22.805Z,100779.73
2019-05-06T09:11:27.189Z,100778.63
2019-05-06T09:12:32.935Z,100778.08
2019-05-06T09:13:38.936Z,100775.84
2019-05-06T09:14:43.658Z,100778.66
2019-05-06T09:15:47.861Z,100783.75
2019-05-06T09:16:53.886Z,100772.48
2019-05-06T09:17:58.571Z,100776.43
2019-05-06T09:19:04.249Z,100775.31
2019-05-06T09:20:09.190Z,100774.77
2019-05-06T09:21:13.999Z,100772.80
2019-05-06T09:22:18.175Z,100775.03
2019-05-06T09:23:22.734Z,100773.66
2019-05-06T09:24:27.201Z,100768.05
2019-05-06T09:25:32.263Z,100768.87
2019-05-06T09:26:39.484Z,100768.85
2019-05-06T09:27:48.350Z,100775.05
2019-05-06T09:28:54.344Z,100769.45
2019-05-06T09:30:02.841Z,100777.86
2019-05-06T09:31:09.725Z,100767.17
2019-05-06T09:32:18.981Z,100767.45
2019-05-06T09:33:24.800Z,100768.02
2019-05-06T09:34:36.414Z,100769.98
2019-05-06T09:35:42.241Z,100765.50
2019-05-06T09:36:52.657Z,100777.55
2019-05-06T09:37:55.033Z,100767.44
2019-05-06T09:38:59.488Z,100764.32
2019-05-06T09:40:04.242Z,100757.58
2019-05-06T09:41:09.402Z,100758.94
2019-05-06T09:42:14.338Z,100758.09
2019-05-06T09:43:18.800Z,100758.03
2019-05-06T09:44:23.052Z,100759.70
2019-05-06T09:45:27.328Z,100752.08
2019-05-06T09:46:32.194Z,100761.04
2019-05-06T09:47:44.325Z,100751.41
2019-05-06T09:49:03.371Z,100753.94
2019-05-06T09:50:09.271Z,100749.69
2019-05-06T09:51:14.619Z,100753.83
2019-05-06T09:52:19.489Z,100753.52
2019-05-06T09:53:28.472Z,100748.48
2019-05-06T09:54:34.535Z,100744.52
2019-05-06T09:55:43.198Z,100745.37
2019-05-06T09:56:49.270Z,100746.48
2019-05-06T09:57:58.123Z,100742.24
2019-05-06T09:59:02.431Z,100745.01
2019-05-06T10:00:07.169Z,100744.14
2019-05-06T10:01:13.207Z,100742.17
2019-05-06T10:02:17.554Z,100736.55
2019-05-06T10:03:22.602Z,100741.55
2019-05-06T10:04:27.083Z,100742.13
2019-05-06T10:05:31.575Z,100741.53
2019-05-06T10:06:36.496Z,100746.27
2019-05-06T10:07:41.000Z,100736.96
2019-05-06T10:08:45.191Z,100739.45
2019-05-06T10:09:52.361Z,100736.91
2019-05-06T10:10:59.736Z,100740.05
2019-05-06T10:12:02.288Z,100738.05
2019-05-06T10:13:06.465Z,100733.01
2019-05-06T10:14:12.912Z,100735.90
2019-05-06T10:15:17.801Z,100742.66
2019-05-06T10:16:22.070Z,100740.20
2019-05-06T10:17:26.336Z,100734.55
2019-05-06T10:18:31.032Z,100734.28
2019-05-06T10:19:35.601Z,100735.48
2019-05-06T10:20:44.135Z,100742.28
2019-05-06T10:21:48.895Z,100738.37
2019-05-06T10:22:53.133Z,100744.33
2019-05-06T10:23:57.394Z,100740.70
2019-05-06T10:25:03.654Z,100742.95
2019-05-06T10:26:09.153Z,100739.59
2019-05-06T10:27:16.420Z,100733.97
2019-05-06T10:28:38.539Z,100731.43
2019-05-06T10:29:44.793Z,100736.73
2019-05-06T10:30:49.135Z,100735.87
2019-05-06T10:32:00.925Z,100731.66
2019-05-06T10:33:10.816Z,100735.87
2019-05-06T10:34:15.409Z,100738.16
2019-05-06T10:35:19.582Z,100734.23
2019-05-06T10:36:23.764Z,100735.92
2019-05-06T10:37:33.574Z,100732.29
2019-05-06T10:38:47.346Z,100732.29
2019-05-06T10:40:16.229Z,100742.13
2019-05-06T10:41:22.509Z,100734.53
2019-05-06T10:42:34.346Z,100738.81
2019-05-06T10:44:00.034Z,100740.48
2019-05-06T10:45:16.646Z,100736.27
2019-05-06T10:46:22.563Z,100744.16
2019-05-06T10:47:26.840Z,100737.98
2019-05-06T10:48:31.424Z,100734.58
2019-05-06T10:49:36.029Z,100743.83
2019-05-06T10:50:42.418Z,100748.31
2019-05-06T10:51:54.445Z,100740.70
2019-05-06T10:53:02.549Z,100748.02
2019-05-06T10:54:06.609Z,100744.09
2019-05-06T10:55:12.293Z,100746.05
2019-05-06T10:56:32.122Z,100743.80
2019-05-06T10:57:40.382Z,100744.95
2019-05-06T10:58:44.400Z,100734.01
2019-05-06T10:59:48.743Z,100745.83
2019-05-06T11:00:54.698Z,100737.39
2019-05-06T11:02:05.024Z,100740.21
2019-05-06T11:03:27.751Z,100735.42
2019-05-06T11:04:33.127Z,100730.94
2019-05-06T11:05:37.388Z,100738.31
2019-05-06T11:06:42.973Z,100732.97
2019-05-06T11:07:47.480Z,100736.11
2019-05-06T11:08:52.511Z,100733.30
2019-05-06T11:09:56.967Z,100731.64
2019-05-06T11:11:15.031Z,100727.41
2019-05-06T11:12:08.731Z,100736.66
2019-05-06T11:13:13.259Z,100728.55
2019-05-06T11:14:17.448Z,100728.55
2019-05-06T11:15:23.336Z,100726.05
2019-05-06T11:16:28.053Z,100727.75
2019-05-06T11:17:32.664Z,100726.86
2019-05-06T11:18:37.925Z,100724.05
2019-05-06T11:19:44.340Z,100722.66
2019-05-06T11:20:52.970Z,100720.41
2019-05-06T11:21:54.659Z,100720.95
2019-05-06T11:22:59.227Z,100722.05
2019-05-06T11:24:06.289Z,100724.53
2019-05-06T11:25:12.317Z,100720.34
2019-05-06T11:26:16.736Z,100713.56
2019-05-06T11:27:28.673Z,100709.37
2019-05-06T11:28:42.670Z,100712.22
2019-05-06T11:29:53.044Z,100712.20
2019-05-06T11:30:58.911Z,100713.00
2019-05-06T11:32:04.828Z,100713.58
2019-05-06T11:33:12.634Z,100719.97
2019-05-06T11:34:24.156Z,100706.12
2019-05-06T11:35:45.921Z,100710.55
2019-05-06T11:37:00.401Z,100706.31
2019-05-06T11:38:06.720Z,100707.41
2019-05-06T11:39:13.988Z,100698.39
2019-05-06T11:40:17.368Z,100705.43
2019-05-06T11:41:23.355Z,100706.52
2019-05-06T11:42:32.428Z,100705.67
2019-05-06T11:43:34.203Z,100707.06
2019-05-06T11:44:38.691Z,100703.63
2019-05-06T11:45:42.950Z,100707.63
2019-05-06T11:46:47.145Z,100705.39
2019-05-06T11:47:55.439Z,100712.70
2019-05-06T11:48:58.058Z,100702.89
2019-05-06T11:50:05.005Z,100703.73
2019-05-06T11:51:12.720Z,100702.33
2019-05-06T11:52:15.722Z,100709.90
2019-05-06T11:53:19.924Z,100704.84
2019-05-06T11:54:24.780Z,100705.66
2019-05-06T11:55:34.383Z,100707.63
2019-05-06T11:56:47.915Z,100707.92
2019-05-06T11:57:44.645Z,100704.01
2019-05-06T11:58:49.876Z,100702.62
2019-05-06T11:59:54.363Z,100699.89
2019-05-06T12:01:02.576Z,100699.38
2019-05-06T12:02:07.402Z,100701.61
2019-05-06T12:03:13.805Z,100702.19
2019-05-06T12:04:18.298Z,100699.62
2019-05-06T12:05:22.515Z,100700.46
2019-05-06T12:06:26.911Z,100697.40
2019-05-06T12:07:33.222Z,100695.97
2019-05-06T12:08:36.956Z,100691.72
2019-05-06T12:09:41.147Z,100688.05
2019-05-06T12:10:45.389Z,100687.70
2019-05-06T12:11:49.670Z,100683.98
2019-05-06T12:12:53.847Z,100685.58
2019-05-06T12:13:58.097Z,100687.48
2019-05-06T12:15:03.483Z,100682.30
2019-05-06T12:16:09.547Z,100683.44
2019-05-06T12:17:14.178Z,100681.20
2019-05-06T12:18:18.992Z,100690.54
2019-05-06T12:19:23.383Z,100683.77
2019-05-06T12:20:27.887Z,100682.90
2019-05-06T12:21:33.119Z,100687.83
2019-05-06T12:22:37.542Z,100677.63
2019-05-06T12:23:44.932Z,100680.73
2019-05-06T12:24:47.868Z,100679.33
2019-05-06T12:25:52.902Z,100684.34
2019-05-06T12:26:57.305Z,100678.83
2019-05-06T12:28:03.040Z,100678.83
2019-05-06T12:29:09.169Z,100678.77
2019-05-06T12:30:14.962Z,100682.33
2019-05-06T12:31:19.286Z,100678.84
2019-05-06T12:32:28.470Z,100674.27
2019-05-06T12:33:37.583Z,100671.34
2019-05-06T12:34:42.971Z,100674.88
2019-05-06T12:35:52.023Z,100666.42
2019-05-06T12:36:55.624Z,100665.02
2019-05-06T12:38:06.790Z,100668.63
2019-05-06T12:39:19.620Z,100671.72
2019-05-06T12:40:23.600Z,100668.41
2019-05-06T12:41:29.056Z,100669.89
2019-05-06T12:42:37.823Z,100668.26